Northampton, Massachusetts
Current Conditions -  °F | °C
As of 1:52 AM on Thursday 23 Oct 2014 (Local Time) from KCEF Reporting Station
Moderate Rain Moderate Rain  
Wind Chill: 43°   Ceiling: 1900
Heat Index: 48°   Visibility: 4mi
Dew Point: 46°   Wind: 14mph
Humidity: 93%   Direction: 30°NNE
Pressure: 29.82"   Gusts: NA
Location:  42.32°N, 72.63°W
Report Text: KCEF 230552Z AUTO 03012KT 4SM RA BR SCT013 BKN019 OVC024 09/08 A2982 RMK AO2 CIG 003 RWY23
Loading
Personal Weather Stations






























Interactive Weather Map
Tropical Storm Tracking
New forecast layout! Learn more

10-Day Weather Forecast

Advertisements
Track Severe Weather on mobile